createdAt,value
2022-10-19T00:02:00.817Z,10.60
2022-10-19T00:04:30.899Z,7.93
2022-10-19T00:07:05.774Z,6.95
2022-10-19T00:09:34.383Z,11.32
2022-10-19T00:12:03.660Z,13.00
2022-10-19T00:14:32.978Z,6.22
2022-10-19T00:17:10.739Z,8.95
2022-10-19T00:19:40.036Z,10.02
2022-10-19T00:22:13.042Z,12.27
2022-10-19T00:24:46.106Z,10.48
2022-10-19T00:27:14.498Z,11.90
2022-10-19T00:29:43.109Z,6.18
2022-10-19T00:32:12.386Z,8.43
2022-10-19T00:34:40.794Z,13.23
2022-10-19T00:37:11.568Z,12.38
2022-10-19T00:39:40.288Z,10.57
2022-10-19T00:42:11.868Z,9.38
2022-10-19T00:45:03.690Z,9.15
2022-10-19T00:47:33.871Z,9.95
2022-10-19T00:50:02.424Z,24.17
2022-10-19T00:52:32.621Z,15.60
2022-10-19T00:55:02.549Z,19.60
2022-10-19T00:57:32.963Z,9.20
2022-10-19T01:00:02.629Z,17.55
2022-10-19T01:02:31.026Z,9.18
2022-10-19T01:05:00.462Z,16.67
2022-10-19T01:07:29.422Z,15.98
2022-10-19T01:10:01.856Z,14.93
2022-10-19T01:12:59.183Z,14.68
2022-10-19T01:15:40.056Z,10.85
2022-10-19T01:18:22.638Z,18.08
2022-10-19T01:21:27.363Z,11.52
2022-10-19T01:24:30.640Z,11.73
2022-10-19T01:27:45.833Z,16.52
2022-10-19T01:30:24.156Z,14.27
2022-10-19T01:33:04.888Z,10.52
2022-10-19T01:35:40.548Z,18.02
2022-10-19T01:38:23.553Z,11.48
2022-10-19T01:40:59.274Z,7.80
2022-10-19T01:43:40.116Z,8.23
2022-10-19T01:46:15.333Z,11.65
2022-10-19T01:48:52.814Z,7.60
2022-10-19T01:51:26.442Z,10.60
2022-10-19T01:53:59.001Z,10.48
2022-10-19T01:56:29.571Z,11.32
2022-10-19T01:59:02.286Z,9.45
2022-10-19T02:01:35.303Z,9.15
2022-10-19T02:04:04.692Z,8.32
2022-10-19T02:06:33.034Z,12.40
2022-10-19T02:09:01.344Z,9.10
2022-10-19T02:11:31.430Z,8.93
2022-10-19T02:14:07.088Z,9.07
2022-10-19T02:16:43.475Z,6.82
2022-10-19T02:19:17.113Z,8.45
2022-10-19T02:21:46.800Z,11.10
2022-10-19T02:24:15.026Z,8.27
2022-10-19T02:26:43.532Z,9.63
2022-10-19T02:29:13.568Z,6.90
2022-10-19T02:31:43.644Z,8.68
2022-10-19T02:34:14.576Z,8.95
2022-10-19T02:36:43.072Z,11.43
2022-10-19T02:39:11.375Z,7.43
2022-10-19T02:41:46.305Z,10.25
2022-10-19T02:44:24.850Z,8.77
2022-10-19T02:47:02.307Z,7.80
2022-10-19T02:49:31.944Z,7.57
2022-10-19T02:52:03.393Z,6.93
2022-10-19T02:54:31.661Z,6.30
2022-10-19T02:56:59.947Z,8.13
2022-10-19T02:59:28.756Z,8.43
2022-10-19T03:01:58.353Z,9.75
2022-10-19T03:04:26.596Z,12.15
2022-10-19T03:06:54.839Z,7.05
2022-10-19T03:09:23.089Z,8.27
2022-10-19T03:11:51.481Z,28.08
2022-10-19T03:14:19.779Z,13.18
2022-10-19T03:16:47.971Z,15.57
2022-10-19T03:19:17.582Z,12.77
2022-10-19T03:21:45.915Z,12.43
2022-10-19T03:24:14.507Z,19.88
2022-10-19T03:26:42.761Z,35.47
2022-10-19T03:29:11.182Z,21.52
2022-10-19T03:31:41.716Z,55.03
2022-10-19T03:34:10.279Z,60.15
2022-10-19T03:36:45.710Z,44.08
2022-10-19T03:39:16.702Z,33.83
2022-10-19T03:41:45.231Z,41.10
2022-10-19T03:44:13.812Z,46.95
2022-10-19T03:46:42.371Z,17.40
2022-10-19T03:49:11.157Z,39.75
2022-10-19T03:51:40.834Z,20.40
2022-10-19T03:54:15.606Z,56.03
2022-10-19T03:56:44.268Z,39.50
2022-10-19T03:59:17.632Z,41.30
2022-10-19T04:01:47.371Z,32.13
2022-10-19T04:04:18.560Z,27.65
2022-10-19T04:06:50.920Z,19.13
2022-10-19T04:09:21.748Z,52.33
2022-10-19T04:11:51.543Z,52.58
2022-10-19T04:14:32.445Z,38.53
2022-10-19T04:17:02.402Z,41.30
2022-10-19T04:19:31.028Z,34.50
2022-10-19T04:22:00.734Z,33.35
2022-10-19T04:24:30.418Z,30.92
2022-10-19T04:27:04.812Z,24.35
2022-10-19T04:29:33.245Z,32.08
2022-10-19T04:32:01.541Z,31.73
2022-10-19T04:34:29.800Z,38.35
2022-10-19T04:37:03.358Z,19.73
2022-10-19T04:39:32.067Z,14.18
2022-10-19T04:42:00.346Z,38.33
2022-10-19T04:44:54.680Z,23.40
2022-10-19T04:47:23.058Z,24.00
2022-10-19T04:49:57.231Z,13.40
2022-10-19T04:52:36.916Z,10.82
2022-10-19T04:55:06.250Z,11.48
2022-10-19T04:57:35.105Z,20.90
2022-10-19T05:00:07.040Z,28.83
2022-10-19T05:02:36.825Z,39.70
2022-10-19T05:05:10.952Z,25.50
2022-10-19T05:07:53.864Z,34.28
2022-10-19T05:10:22.647Z,20.92
2022-10-19T05:12:56.043Z,55.78
2022-10-19T05:15:25.460Z,55.08
2022-10-19T05:17:59.688Z,38.85
2022-10-19T05:20:28.373Z,22.15
2022-10-19T05:22:58.005Z,86.60
2022-10-19T05:25:34.275Z,32.58
2022-10-19T05:28:03.964Z,73.30
2022-10-19T05:30:32.553Z,50.70
2022-10-19T05:33:01.256Z,50.75
2022-10-19T05:35:29.516Z,50.78
2022-10-19T05:37:59.064Z,55.97
2022-10-19T05:40:28.665Z,48.78
2022-10-19T05:42:56.876Z,49.08
2022-10-19T05:45:25.129Z,67.35
2022-10-19T05:47:53.368Z,79.72
2022-10-19T05:50:21.629Z,62.53
2022-10-19T05:52:49.869Z,63.33
2022-10-19T05:55:19.519Z,87.63
2022-10-19T05:57:47.835Z,71.70
2022-10-19T06:00:16.760Z,61.42
2022-10-19T06:02:45.154Z,35.20
2022-10-19T06:05:13.332Z,58.20
2022-10-19T06:07:41.507Z,44.17
2022-10-19T06:10:10.825Z,68.72
2022-10-19T06:12:40.588Z,40.92
2022-10-19T06:15:10.070Z,31.60
2022-10-19T06:17:38.818Z,43.88
2022-10-19T06:20:09.136Z,41.72
2022-10-19T06:22:37.355Z,58.92
2022-10-19T06:25:06.687Z,54.28
2022-10-19T06:27:35.190Z,43.75
2022-10-19T06:30:06.376Z,49.33
2022-10-19T06:32:34.613Z,58.05
2022-10-19T06:35:03.839Z,23.27
2022-10-19T06:37:32.265Z,23.80
2022-10-19T06:40:04.737Z,28.85
2022-10-19T06:42:35.138Z,32.35
2022-10-19T06:45:05.268Z,21.30
2022-10-19T06:47:34.419Z,31.48
2022-10-19T06:50:08.665Z,47.20
2022-10-19T06:52:37.459Z,50.53
2022-10-19T06:55:07.465Z,33.08
2022-10-19T06:57:37.078Z,22.88
2022-10-19T07:00:12.291Z,9.63
2022-10-19T07:02:40.539Z,23.98
2022-10-19T07:05:10.411Z,36.35
2022-10-19T07:07:38.774Z,20.05
2022-10-19T07:10:08.188Z,29.30
2022-10-19T07:12:38.128Z,18.98
2022-10-19T07:15:09.460Z,26.27
2022-10-19T07:17:38.057Z,25.80
2022-10-19T07:20:07.826Z,20.55
2022-10-19T07:22:36.436Z,13.25
2022-10-19T07:25:05.265Z,15.65
2022-10-19T07:27:37.549Z,13.77
2022-10-19T07:30:07.184Z,11.25
2022-10-19T07:32:36.716Z,9.88
2022-10-19T07:35:05.891Z,8.00
2022-10-19T07:37:35.173Z,12.48
2022-10-19T07:40:03.533Z,12.43
2022-10-19T07:42:31.846Z,14.52
2022-10-19T07:45:00.594Z,14.30
2022-10-19T07:47:28.850Z,20.25
2022-10-19T07:50:03.014Z,17.40
2022-10-19T07:52:33.137Z,22.15
2022-10-19T07:55:05.501Z,24.30
2022-10-19T07:57:34.967Z,19.17
2022-10-19T08:00:03.666Z,18.45
2022-10-19T08:02:39.673Z,20.58
2022-10-19T08:05:21.891Z,18.13
2022-10-19T08:07:50.147Z,20.55
2022-10-19T08:10:18.537Z,16.30
2022-10-19T08:12:46.772Z,14.63
2022-10-19T08:15:15.183Z,13.20
2022-10-19T08:17:43.748Z,16.55
2022-10-19T08:20:12.288Z,14.32
2022-10-19T08:22:45.124Z,13.20
2022-10-19T08:25:13.832Z,15.35
2022-10-19T08:27:42.035Z,14.05
2022-10-19T08:30:11.246Z,12.02
2022-10-19T08:32:39.791Z,12.25
2022-10-19T08:35:10.798Z,11.57
2022-10-19T08:37:44.837Z,11.80
2022-10-19T08:40:22.294Z,9.90
2022-10-19T08:42:58.754Z,10.27
2022-10-19T08:48:36.685Z,8.77
2022-10-19T08:51:09.234Z,11.13
2022-10-19T08:53:47.231Z,10.88
2022-10-19T08:56:50.976Z,8.60
2022-10-19T08:59:32.606Z,11.02
2022-10-19T09:02:09.287Z,9.52
2022-10-19T09:04:50.261Z,10.57
2022-10-19T09:07:28.152Z,10.55
2022-10-19T09:10:01.233Z,9.60
2022-10-19T09:12:46.766Z,10.77
2022-10-19T09:15:19.648Z,9.13
2022-10-19T09:17:48.090Z,10.73
2022-10-19T09:20:40.822Z,10.93
2022-10-19T09:23:28.736Z,10.60
2022-10-19T09:25:58.671Z,9.13
2022-10-19T09:28:46.000Z,9.98
2022-10-19T09:31:22.181Z,8.80
2022-10-19T09:33:56.884Z,10.32
2022-10-19T09:36:50.155Z,12.35
2022-10-19T09:39:20.051Z,9.70
2022-10-19T09:41:52.767Z,9.18
2022-10-19T09:44:36.145Z,10.93
2022-10-19T09:47:29.667Z,9.90
2022-10-19T09:50:10.229Z,15.68
2022-10-19T09:52:41.045Z,14.20
2022-10-19T09:55:30.512Z,9.75
2022-10-19T09:58:20.464Z,9.30
2022-10-19T10:00:54.415Z,9.77
2022-10-19T10:03:29.991Z,8.07
2022-10-19T10:06:19.042Z,11.10
2022-10-19T10:08:51.084Z,12.10
2022-10-19T10:11:26.815Z,11.43
2022-10-19T10:13:57.135Z,9.25
2022-10-19T10:16:33.062Z,10.02
2022-10-19T10:19:06.935Z,10.13
2022-10-19T10:21:47.684Z,10.40
2022-10-19T10:24:20.396Z,9.70
2022-10-19T10:26:51.618Z,9.68
2022-10-19T10:29:33.099Z,8.82
2022-10-19T10:32:07.490Z,10.60
2022-10-19T10:34:49.828Z,8.90
2022-10-19T10:37:24.864Z,9.65
2022-10-19T10:40:02.013Z,11.18
2022-10-19T10:42:38.315Z,8.57
2022-10-19T10:45:22.235Z,7.70
2022-10-19T10:48:15.277Z,8.38
2022-10-19T10:50:44.229Z,7.72
2022-10-19T10:53:38.154Z,11.35
2022-10-19T10:56:21.212Z,9.32
2022-10-19T10:58:57.308Z,9.40
2022-10-19T11:01:32.119Z,10.88
2022-10-19T11:04:08.809Z,7.75
2022-10-19T11:06:47.047Z,9.07
2022-10-19T11:09:32.446Z,11.70
2022-10-19T11:12:04.916Z,10.20
2022-10-19T11:14:42.320Z,8.57
2022-10-19T11:17:21.917Z,8.18
2022-10-19T11:19:51.713Z,9.10
2022-10-19T11:22:29.405Z,10.52
2022-10-19T11:25:33.097Z,8.23
2022-10-19T11:28:20.856Z,8.60
2022-10-19T11:30:58.778Z,11.73
2022-10-19T11:33:48.950Z,9.77
2022-10-19T11:36:33.864Z,10.55
2022-10-19T11:39:39.391Z,7.90
2022-10-19T11:42:24.510Z,7.80
2022-10-19T11:45:07.433Z,9.45
2022-10-19T11:47:55.210Z,9.55
2022-10-19T11:50:35.087Z,9.77
2022-10-19T11:53:13.260Z,7.35
2022-10-19T11:55:48.173Z,9.05
2022-10-19T11:58:35.379Z,7.15
2022-10-19T12:01:24.609Z,9.07
2022-10-19T12:04:29.641Z,6.72
2022-10-19T12:07:15.770Z,8.52
2022-10-19T12:09:55.519Z,6.65
2022-10-19T12:12:32.432Z,7.10
2022-10-19T12:15:23.635Z,8.75
2022-10-19T12:18:01.800Z,6.93
2022-10-19T12:20:43.035Z,7.43
2022-10-19T12:23:24.582Z,9.07
2022-10-19T12:25:56.222Z,6.38
2022-10-19T12:28:29.837Z,7.95
2022-10-19T12:31:00.232Z,7.10
2022-10-19T12:33:41.040Z,9.50
2022-10-19T12:36:28.080Z,6.95
2022-10-19T12:39:09.005Z,7.82
2022-10-19T12:41:52.410Z,10.18
2022-10-19T12:44:41.132Z,7.32
2022-10-19T12:47:13.706Z,6.70
2022-10-19T12:49:48.808Z,9.75
2022-10-19T12:52:37.892Z,7.35
2022-10-19T12:55:25.763Z,8.13
2022-10-19T12:58:17.426Z,9.18
2022-10-19T13:00:59.664Z,7.30
2022-10-19T13:07:36.287Z,6.45
2022-10-19T13:10:09.631Z,7.00
2022-10-19T13:12:47.113Z,9.20
2022-10-19T13:15:52.027Z,7.97
2022-10-19T13:19:03.377Z,8.85
2022-10-19T13:21:53.631Z,9.00
2022-10-19T13:24:35.726Z,13.20
2022-10-19T13:27:40.320Z,14.65
2022-10-19T13:31:06.273Z,10.15
2022-10-19T13:33:54.220Z,9.93
2022-10-19T13:36:24.220Z,8.43
2022-10-19T13:39:13.871Z,9.25
2022-10-19T13:41:57.380Z,8.32
2022-10-19T13:44:35.403Z,8.55
2022-10-19T13:50:39.787Z,10.00
2022-10-19T13:53:39.266Z,6.90
2022-10-19T13:56:25.669Z,9.45
2022-10-19T13:59:44.803Z,7.90
2022-10-19T14:03:02.185Z,12.20
2022-10-19T14:06:15.558Z,7.88
2022-10-19T14:09:28.422Z,9.50
2022-10-19T14:12:07.007Z,8.45
2022-10-19T14:17:19.628Z,8.68
2022-10-19T14:20:26.978Z,8.07
2022-10-19T14:22:59.380Z,12.70
2022-10-19T14:25:29.420Z,8.50
2022-10-19T14:28:01.986Z,7.60
2022-10-19T14:30:33.599Z,7.50
2022-10-19T14:33:08.157Z,7.88
2022-10-19T14:35:41.672Z,7.20
2022-10-19T14:38:17.673Z,7.13
2022-10-19T14:40:47.871Z,8.52
2022-10-19T14:43:23.648Z,7.00
2022-10-19T14:46:12.212Z,6.35
2022-10-19T14:48:45.314Z,8.70
2022-10-19T14:51:30.737Z,8.05
2022-10-19T14:54:05.086Z,9.68
2022-10-19T14:56:38.289Z,8.93
2022-10-19T14:59:20.507Z,6.20
2022-10-19T15:01:51.727Z,8.18
2022-10-19T15:04:22.835Z,7.00
2022-10-19T15:06:52.937Z,7.80
2022-10-19T15:09:36.956Z,6.85
2022-10-19T15:12:18.811Z,7.35
2022-10-19T15:14:48.525Z,6.78
2022-10-19T15:17:30.240Z,7.90
2022-10-19T15:20:01.358Z,10.20
2022-10-19T15:22:41.884Z,7.63
2022-10-19T15:25:32.690Z,8.75
2022-10-19T15:28:21.661Z,10.40
2022-10-19T15:31:00.725Z,7.45
2022-10-19T15:33:29.689Z,7.68
2022-10-19T15:36:17.151Z,8.32
2022-10-19T15:38:49.191Z,6.70
2022-10-19T15:41:30.456Z,7.10
2022-10-19T15:44:33.767Z,7.38
2022-10-19T15:47:23.136Z,9.93
2022-10-19T15:50:02.419Z,7.95
2022-10-19T15:52:34.100Z,8.50
2022-10-19T15:55:03.839Z,5.65
2022-10-19T15:58:00.108Z,6.90
2022-10-19T16:00:35.430Z,8.50
2022-10-19T16:03:03.865Z,6.72
2022-10-19T16:05:59.304Z,8.35
2022-10-19T16:08:30.817Z,6.18
2022-10-19T16:11:15.049Z,9.02
2022-10-19T16:13:45.647Z,8.90
2022-10-19T16:16:24.637Z,9.82
2022-10-19T16:19:05.200Z,9.38
2022-10-19T16:21:49.295Z,8.40
2022-10-19T16:24:24.301Z,7.68
2022-10-19T16:27:03.253Z,8.30
2022-10-19T16:29:31.751Z,12.48
2022-10-19T16:32:10.447Z,9.10
2022-10-19T16:34:39.952Z,8.77
2022-10-19T16:37:13.420Z,9.48
2022-10-19T16:39:43.823Z,11.13
2022-10-19T16:42:25.596Z,13.30
2022-10-19T16:44:58.452Z,11.27
2022-10-19T16:47:27.858Z,7.70
2022-10-19T16:50:00.870Z,11.95
2022-10-19T16:52:33.149Z,10.05
2022-10-19T16:55:02.766Z,7.80
2022-10-19T16:57:53.382Z,8.68
2022-10-19T17:00:26.536Z,10.57
2022-10-19T17:02:55.081Z,11.20
2022-10-19T17:05:24.388Z,15.68
2022-10-19T17:07:53.607Z,13.95
2022-10-19T17:10:21.931Z,16.67
2022-10-19T17:12:51.578Z,10.73
2022-10-19T17:18:08.790Z,8.63
2022-10-19T17:20:37.089Z,11.77
2022-10-19T17:23:05.565Z,9.05
2022-10-19T17:25:33.851Z,7.55
2022-10-19T17:28:09.304Z,6.80
2022-10-19T17:30:42.397Z,11.80
2022-10-19T17:33:17.601Z,8.60
2022-10-19T17:36:16.472Z,13.68
2022-10-19T17:38:46.399Z,7.53
2022-10-19T17:41:20.628Z,8.80
2022-10-19T17:43:53.983Z,13.13
2022-10-19T17:46:25.847Z,10.90
2022-10-19T17:48:54.944Z,7.53
2022-10-19T17:51:27.044Z,17.00
2022-10-19T17:53:58.811Z,9.02
2022-10-19T17:56:28.963Z,9.38
2022-10-19T17:58:59.732Z,8.05
2022-10-19T18:01:28.524Z,14.82
2022-10-19T18:03:57.421Z,11.00
2022-10-19T18:06:31.489Z,10.40
2022-10-19T18:09:13.518Z,11.95
2022-10-19T18:11:45.929Z,10.07
2022-10-19T18:14:16.502Z,9.98
2022-10-19T18:16:47.428Z,10.70
2022-10-19T18:19:17.708Z,15.35
2022-10-19T18:21:49.104Z,13.32
2022-10-19T18:24:21.349Z,10.02
2022-10-19T18:26:51.067Z,15.60
2022-10-19T18:29:25.136Z,11.43
2022-10-19T18:31:55.010Z,11.60
2022-10-19T18:34:25.713Z,9.27
2022-10-19T18:36:54.969Z,11.38
2022-10-19T18:39:24.488Z,8.15
2022-10-19T18:41:55.753Z,13.80
2022-10-19T18:44:27.871Z,12.00
2022-10-19T18:46:57.704Z,15.85
2022-10-19T18:49:29.843Z,17.38
2022-10-19T18:51:58.447Z,11.57
2022-10-19T18:54:27.975Z,12.77
2022-10-19T18:57:04.363Z,21.10
2022-10-19T18:59:34.206Z,27.02
2022-10-19T19:02:02.502Z,20.00
2022-10-19T19:04:30.827Z,22.42
2022-10-19T19:06:59.255Z,25.40
2022-10-19T19:09:27.662Z,19.60
2022-10-19T19:11:58.341Z,19.83
2022-10-19T19:14:26.709Z,12.60
2022-10-19T19:16:56.386Z,12.95
2022-10-19T19:19:27.604Z,16.38
2022-10-19T19:21:56.045Z,15.27
2022-10-19T19:24:29.578Z,10.90
2022-10-19T19:27:02.914Z,12.15
2022-10-19T19:29:31.492Z,11.80
2022-10-19T19:32:05.449Z,9.50
2022-10-19T19:34:33.789Z,15.40
2022-10-19T19:37:07.342Z,10.70
2022-10-19T19:39:40.050Z,10.32
2022-10-19T19:42:09.925Z,19.42
2022-10-19T19:44:38.190Z,15.13
2022-10-19T19:47:08.679Z,10.50
2022-10-19T19:49:38.396Z,9.00
2022-10-19T19:52:07.681Z,13.65
2022-10-19T19:54:35.897Z,12.25
2022-10-19T19:57:04.585Z,8.90
2022-10-19T19:59:32.921Z,13.68
2022-10-19T20:02:01.467Z,11.07
2022-10-19T20:04:31.197Z,10.52
2022-10-19T20:06:59.460Z,16.13
2022-10-19T20:09:29.828Z,14.48
2022-10-19T20:11:58.007Z,8.02
2022-10-19T20:14:26.816Z,8.07
2022-10-19T20:16:55.062Z,33.55
2022-10-19T20:19:24.348Z,11.35
2022-10-19T20:21:58.629Z,10.68
2022-10-19T20:24:26.940Z,10.35
2022-10-19T20:26:55.859Z,13.30
2022-10-19T20:29:25.315Z,14.18
2022-10-19T20:31:55.848Z,12.15
2022-10-19T20:34:30.164Z,11.93
2022-10-19T20:37:01.973Z,9.90
2022-10-19T20:39:30.507Z,9.88
2022-10-19T20:42:00.280Z,12.90
2022-10-19T20:44:29.605Z,10.75
2022-10-19T20:47:07.932Z,11.10
2022-10-19T20:49:43.075Z,11.35
2022-10-19T20:52:14.729Z,10.68
2022-10-19T20:54:45.880Z,12.35
2022-10-19T20:57:20.237Z,9.57
2022-10-19T20:59:49.940Z,12.93
2022-10-19T21:02:19.276Z,13.27
2022-10-19T21:04:48.639Z,15.98
2022-10-19T21:07:18.724Z,24.88
2022-10-19T21:09:48.024Z,24.92
2022-10-19T21:12:27.752Z,15.57
2022-10-19T21:14:56.996Z,22.10
2022-10-19T21:20:13.320Z,13.95
2022-10-19T21:23:01.223Z,17.48
2022-10-19T21:25:31.884Z,26.67
2022-10-19T21:28:00.098Z,42.55
2022-10-19T21:30:28.340Z,15.23
2022-10-19T21:32:58.371Z,14.75
2022-10-19T21:35:26.687Z,11.20
2022-10-19T21:38:02.588Z,8.88
2022-10-19T21:40:32.192Z,10.38
2022-10-19T21:43:07.448Z,11.98
2022-10-19T21:45:40.960Z,12.38
2022-10-19T21:48:09.267Z,16.23
2022-10-19T21:50:38.232Z,13.68
2022-10-19T21:53:20.403Z,12.73
2022-10-19T21:55:49.012Z,17.63
2022-10-19T21:58:29.498Z,14.13
2022-10-19T22:01:09.443Z,11.32
2022-10-19T22:03:39.700Z,13.55
2022-10-19T22:06:08.607Z,11.85
2022-10-19T22:08:40.939Z,13.23
2022-10-19T22:11:12.152Z,14.40
2022-10-19T22:13:49.614Z,10.27
2022-10-19T22:16:21.674Z,13.43
2022-10-19T22:18:51.121Z,15.25
2022-10-19T22:21:27.045Z,10.70
2022-10-19T22:24:00.597Z,18.65
2022-10-19T22:26:34.962Z,15.60
2022-10-19T22:29:15.893Z,37.40
2022-10-19T22:31:44.714Z,11.38
2022-10-19T22:34:16.677Z,12.85
2022-10-19T22:36:45.706Z,11.07
2022-10-19T22:39:23.205Z,13.27
2022-10-19T22:41:53.895Z,11.93
2022-10-19T22:44:22.092Z,11.07
2022-10-19T22:46:56.348Z,10.63
2022-10-19T22:49:24.706Z,11.00
2022-10-19T22:51:53.917Z,10.18
2022-10-19T22:54:23.993Z,12.52
2022-10-19T22:56:53.506Z,12.43
2022-10-19T22:59:21.707Z,13.65
2022-10-19T23:01:50.100Z,13.60
2022-10-19T23:04:20.084Z,12.15
2022-10-19T23:06:48.616Z,14.82
2022-10-19T23:09:17.413Z,13.32
2022-10-19T23:11:49.430Z,15.70
2022-10-19T23:14:17.944Z,15.10
2022-10-19T23:16:46.259Z,14.38
2022-10-19T23:19:17.788Z,10.15
2022-10-19T23:21:55.048Z,11.23
2022-10-19T23:24:35.393Z,10.30
2022-10-19T23:27:06.056Z,15.35
2022-10-19T23:29:38.946Z,14.77
2022-10-19T23:32:07.620Z,13.25
2022-10-19T23:34:36.837Z,13.98
2022-10-19T23:37:05.173Z,11.30
2022-10-19T23:39:39.204Z,13.48
2022-10-19T23:42:16.873Z,21.25
2022-10-19T23:44:49.659Z,10.68
2022-10-19T23:47:18.920Z,14.82
2022-10-19T23:49:47.416Z,9.90
2022-10-19T23:52:15.658Z,12.35
2022-10-19T23:54:43.863Z,14.43
2022-10-19T23:57:12.183Z,13.93
2022-10-19T23:59:49.630Z,14.93
